createdAt,value
2022-10-06T00:02:20.308Z,8.92
2022-10-06T00:04:51.016Z,8.92
2022-10-06T00:07:20.534Z,8.93
2022-10-06T00:09:49.616Z,8.93
2022-10-06T00:12:18.810Z,8.92
2022-10-06T00:14:47.942Z,8.93
2022-10-06T00:17:17.014Z,8.93
2022-10-06T00:19:46.209Z,8.93
2022-10-06T00:22:16.696Z,8.95
2022-10-06T00:24:45.859Z,8.95
2022-10-06T00:27:15.124Z,8.95
2022-10-06T00:29:44.164Z,8.94
2022-10-06T00:32:13.174Z,8.95
2022-10-06T00:34:44.148Z,8.97
2022-10-06T00:37:13.240Z,8.96
2022-10-06T00:39:44.041Z,8.98
2022-10-06T00:42:23.844Z,9.00
2022-10-06T00:44:54.909Z,9.02
2022-10-06T00:47:25.821Z,9.04
2022-10-06T00:49:56.767Z,9.05
2022-10-06T00:52:30.700Z,9.06
2022-10-06T00:55:04.403Z,9.07
2022-10-06T00:57:37.339Z,9.07
2022-10-06T01:00:08.087Z,9.08
2022-10-06T01:02:42.622Z,9.06
2022-10-06T01:05:16.477Z,9.07
2022-10-06T01:07:47.290Z,9.06
2022-10-06T01:10:18.010Z,9.05
2022-10-06T01:12:48.118Z,9.04
2022-10-06T01:15:17.807Z,9.03
2022-10-06T01:17:50.850Z,9.02
2022-10-06T01:20:22.971Z,9.00
2022-10-06T01:22:58.425Z,8.98
2022-10-06T01:25:28.636Z,8.97
2022-10-06T01:27:58.449Z,8.97
2022-10-06T01:30:33.675Z,8.98
2022-10-06T01:33:02.818Z,8.96
2022-10-06T01:35:32.063Z,8.96
2022-10-06T01:38:03.570Z,8.97
2022-10-06T01:40:33.301Z,8.98
2022-10-06T01:43:03.775Z,8.99
2022-10-06T01:45:33.005Z,8.98
2022-10-06T01:48:02.189Z,8.98
2022-10-06T01:50:32.774Z,8.98
2022-10-06T01:53:03.308Z,8.99
2022-10-06T01:55:32.632Z,8.98
2022-10-06T01:58:02.337Z,8.98
2022-10-06T02:00:31.522Z,8.99
2022-10-06T02:03:00.754Z,9.01
2022-10-06T02:05:30.888Z,9.03
2022-10-06T02:08:00.182Z,9.06
2022-10-06T02:10:31.498Z,9.11
2022-10-06T02:13:01.627Z,9.16
2022-10-06T02:15:33.574Z,9.21
2022-10-06T02:18:02.671Z,9.27
2022-10-06T02:20:31.891Z,9.33
2022-10-06T02:23:01.162Z,9.37
2022-10-06T02:25:31.608Z,9.43
2022-10-06T02:28:01.839Z,9.46
2022-10-06T02:31:17.329Z,9.53
2022-10-06T02:33:48.364Z,9.55
2022-10-06T02:36:20.150Z,9.58
2022-10-06T02:38:49.528Z,9.62
2022-10-06T02:41:20.253Z,9.65
2022-10-06T02:43:49.459Z,9.68
2022-10-06T02:46:19.004Z,9.72
2022-10-06T02:48:51.952Z,9.76
2022-10-06T02:51:22.608Z,9.81
2022-10-06T02:53:53.166Z,9.86
2022-10-06T02:56:25.370Z,9.89
2022-10-06T02:58:55.646Z,9.93
2022-10-06T03:01:31.207Z,9.96
2022-10-06T03:04:04.024Z,10.00
2022-10-06T03:06:33.700Z,10.06
2022-10-06T03:09:18.911Z,10.09
2022-10-06T03:11:49.627Z,10.15
2022-10-06T03:14:32.363Z,10.22
2022-10-06T03:17:02.041Z,10.28
2022-10-06T03:19:32.208Z,10.33
2022-10-06T03:22:01.616Z,10.38
2022-10-06T03:24:40.109Z,10.45
2022-10-06T03:27:11.287Z,10.51
2022-10-06T03:29:40.637Z,10.55
2022-10-06T03:32:10.340Z,10.60
2022-10-06T03:34:40.084Z,10.65
2022-10-06T03:37:13.059Z,10.70
2022-10-06T03:39:42.122Z,10.75
2022-10-06T03:42:12.988Z,10.80
2022-10-06T03:44:42.276Z,10.87
2022-10-06T03:47:16.790Z,10.92
2022-10-06T03:49:46.651Z,10.96
2022-10-06T03:52:20.197Z,11.03
2022-10-06T03:54:53.058Z,11.11
2022-10-06T03:57:23.462Z,11.19
2022-10-06T03:59:53.068Z,11.26
2022-10-06T04:02:22.290Z,11.34
2022-10-06T04:04:51.284Z,11.41
2022-10-06T04:07:20.536Z,11.50
2022-10-06T04:09:49.961Z,11.56
2022-10-06T04:12:19.912Z,11.61
2022-10-06T04:14:50.667Z,11.68
2022-10-06T04:17:20.605Z,11.74
2022-10-06T04:19:49.744Z,11.82
2022-10-06T04:22:19.222Z,11.89
2022-10-06T04:24:50.608Z,11.97
2022-10-06T04:27:36.336Z,12.04
2022-10-06T04:30:18.186Z,12.10
2022-10-06T04:32:47.443Z,12.15
2022-10-06T04:35:16.721Z,12.21
2022-10-06T04:37:46.638Z,12.26
2022-10-06T04:40:16.652Z,12.31
2022-10-06T04:42:45.670Z,12.36
2022-10-06T04:45:19.290Z,12.41
2022-10-06T04:47:51.045Z,12.45
2022-10-06T04:50:20.755Z,12.48
2022-10-06T04:53:07.803Z,12.54
2022-10-06T04:55:37.037Z,12.57
2022-10-06T04:58:06.439Z,12.63
2022-10-06T05:00:37.477Z,12.66
2022-10-06T05:03:06.830Z,12.70
2022-10-06T05:05:35.975Z,12.74
2022-10-06T05:08:05.199Z,12.76
2022-10-06T05:10:34.161Z,12.80
2022-10-06T05:13:03.953Z,12.81
2022-10-06T05:15:33.081Z,12.83
2022-10-06T05:18:03.668Z,12.86
2022-10-06T05:20:32.665Z,12.87
2022-10-06T05:23:08.855Z,12.88
2022-10-06T05:25:38.387Z,12.90
2022-10-06T05:28:08.313Z,12.91
2022-10-06T05:30:37.476Z,12.94
2022-10-06T05:33:10.990Z,12.95
2022-10-06T05:35:41.040Z,12.96
2022-10-06T05:38:11.770Z,12.97
2022-10-06T05:40:40.900Z,12.99
2022-10-06T05:43:10.109Z,13.00
2022-10-06T05:45:39.151Z,13.00
2022-10-06T05:48:09.991Z,13.00
2022-10-06T05:50:39.073Z,13.01
2022-10-06T05:53:08.167Z,13.03
2022-10-06T05:55:37.371Z,13.05
2022-10-06T05:58:06.417Z,13.06
2022-10-06T06:00:35.514Z,13.09
2022-10-06T06:03:04.913Z,13.12
2022-10-06T06:05:35.332Z,13.16
2022-10-06T06:08:04.625Z,13.21
2022-10-06T06:10:34.757Z,13.27
2022-10-06T06:13:03.749Z,13.33
2022-10-06T06:16:01.595Z,13.41
2022-10-06T06:18:32.901Z,13.50
2022-10-06T06:21:05.523Z,13.58
2022-10-06T06:23:37.208Z,13.67
2022-10-06T06:26:08.303Z,13.77
2022-10-06T06:28:41.550Z,13.87
2022-10-06T06:31:17.588Z,13.97
2022-10-06T06:33:51.710Z,14.08
2022-10-06T06:36:26.034Z,14.19
2022-10-06T06:38:57.121Z,14.26
2022-10-06T06:41:28.621Z,14.36
2022-10-06T06:44:20.937Z,14.45
2022-10-06T06:46:56.316Z,14.51
2022-10-06T06:49:25.790Z,14.60
2022-10-06T06:52:04.687Z,14.64
2022-10-06T06:54:36.273Z,14.73
2022-10-06T06:57:12.469Z,14.78
2022-10-06T06:59:41.920Z,14.83
2022-10-06T07:02:13.708Z,14.90
2022-10-06T07:04:46.175Z,15.00
2022-10-06T07:07:21.097Z,15.06
2022-10-06T07:09:50.249Z,15.11
2022-10-06T07:12:22.652Z,15.17
2022-10-06T07:15:13.088Z,15.20
2022-10-06T07:18:02.828Z,15.24
2022-10-06T07:20:50.431Z,15.30
2022-10-06T07:23:39.981Z,15.33
2022-10-06T07:26:14.000Z,15.36
2022-10-06T07:28:44.624Z,15.39
2022-10-06T07:31:17.642Z,15.43
2022-10-06T07:33:48.489Z,15.45
2022-10-06T07:36:18.464Z,15.52
2022-10-06T07:38:49.405Z,15.54
2022-10-06T07:41:20.241Z,15.58
2022-10-06T07:43:54.775Z,15.63
2022-10-06T07:46:25.367Z,15.74
2022-10-06T07:49:21.421Z,15.78
2022-10-06T07:51:51.120Z,15.82
2022-10-06T07:54:26.570Z,15.85
2022-10-06T07:57:35.429Z,15.93
2022-10-06T08:00:07.442Z,15.96
2022-10-06T08:02:43.521Z,15.98
2022-10-06T08:05:12.311Z,15.99
2022-10-06T08:07:41.618Z,15.98
2022-10-06T08:10:12.386Z,15.99
2022-10-06T08:12:41.838Z,15.96
2022-10-06T08:15:13.746Z,15.93
2022-10-06T08:17:43.086Z,15.91
2022-10-06T08:20:18.389Z,15.90
2022-10-06T08:22:49.676Z,15.88
2022-10-06T08:25:20.416Z,15.90
2022-10-06T08:27:53.403Z,15.92
2022-10-06T08:30:27.227Z,15.94
2022-10-06T08:32:58.489Z,15.98
2022-10-06T08:35:29.086Z,16.02
2022-10-06T08:37:58.364Z,16.01
2022-10-06T08:40:29.333Z,16.06
2022-10-06T08:43:02.380Z,16.10
2022-10-06T08:45:38.585Z,16.11
2022-10-06T08:48:14.363Z,16.12
2022-10-06T08:50:54.155Z,16.13
2022-10-06T08:53:29.388Z,16.10
2022-10-06T08:56:07.503Z,16.09
2022-10-06T08:58:47.496Z,16.07
2022-10-06T09:01:19.832Z,16.06
2022-10-06T09:03:52.343Z,16.04
2022-10-06T09:06:38.173Z,16.05
2022-10-06T09:09:18.513Z,16.03
2022-10-06T09:12:00.088Z,16.09
2022-10-06T09:14:37.597Z,16.11
2022-10-06T09:17:12.034Z,16.15
2022-10-06T09:19:46.101Z,16.22
2022-10-06T09:22:20.735Z,16.31
2022-10-06T09:24:55.159Z,16.41
2022-10-06T09:27:29.822Z,16.50
2022-10-06T09:29:59.878Z,16.57
2022-10-06T09:32:31.897Z,16.62
2022-10-06T09:35:02.707Z,16.66
2022-10-06T09:37:53.767Z,16.69
2022-10-06T09:40:37.535Z,16.72
2022-10-06T09:43:18.418Z,16.71
2022-10-06T09:45:47.843Z,16.71
2022-10-06T09:48:24.999Z,16.70
2022-10-06T09:51:10.219Z,16.71
2022-10-06T09:53:39.973Z,16.69
2022-10-06T09:56:18.817Z,16.71
2022-10-06T09:58:58.139Z,16.72
2022-10-06T10:01:29.514Z,16.72
2022-10-06T10:04:19.291Z,16.73
2022-10-06T10:06:49.176Z,16.80
2022-10-06T10:09:24.956Z,16.85
2022-10-06T10:12:28.734Z,16.89
2022-10-06T10:15:03.590Z,16.92
2022-10-06T10:17:44.115Z,16.92
2022-10-06T10:20:30.215Z,16.97
2022-10-06T10:23:01.621Z,17.01
2022-10-06T10:25:59.652Z,17.04
2022-10-06T10:28:52.271Z,17.08
2022-10-06T10:31:32.170Z,17.09
2022-10-06T10:34:23.959Z,17.10
2022-10-06T10:36:57.890Z,17.13
2022-10-06T10:39:34.757Z,17.16
2022-10-06T10:42:13.115Z,17.18
2022-10-06T10:44:51.024Z,17.20
2022-10-06T10:47:27.508Z,17.23
2022-10-06T10:50:04.052Z,17.24
2022-10-06T10:52:41.416Z,17.25
2022-10-06T10:55:23.306Z,17.28
2022-10-06T10:57:54.318Z,17.31
2022-10-06T11:00:28.202Z,17.34
2022-10-06T11:03:02.291Z,17.35
2022-10-06T11:05:45.156Z,17.36
2022-10-06T11:08:25.327Z,17.36
2022-10-06T11:10:59.075Z,17.33
2022-10-06T11:13:37.399Z,17.40
2022-10-06T11:16:19.746Z,17.45
2022-10-06T11:19:15.282Z,17.45
2022-10-06T11:21:52.078Z,17.51
2022-10-06T11:24:32.280Z,17.54
2022-10-06T11:27:28.624Z,17.57
2022-10-06T11:30:07.591Z,17.56
2022-10-06T11:33:04.807Z,17.60
2022-10-06T11:35:38.372Z,17.62
2022-10-06T11:38:16.902Z,17.57
2022-10-06T11:41:09.924Z,17.56
2022-10-06T11:43:47.506Z,17.54
2022-10-06T11:46:31.127Z,17.50
2022-10-06T11:49:39.503Z,17.47
2022-10-06T11:52:50.780Z,17.42
2022-10-06T11:55:26.398Z,17.39
2022-10-06T11:58:23.800Z,17.35
2022-10-06T12:00:58.204Z,17.32
2022-10-06T12:03:48.851Z,17.28
2022-10-06T12:06:53.572Z,17.26
2022-10-06T12:09:46.185Z,17.23
2022-10-06T12:13:01.906Z,17.21
2022-10-06T12:18:49.793Z,17.17
2022-10-06T12:21:47.076Z,17.13
2022-10-06T12:24:41.454Z,17.13
2022-10-06T12:27:33.375Z,17.11
2022-10-06T12:30:16.909Z,17.09
2022-10-06T12:32:51.197Z,17.07
2022-10-06T12:35:26.544Z,17.03
2022-10-06T12:37:58.349Z,16.97
2022-10-06T12:40:46.697Z,16.89
2022-10-06T12:43:33.226Z,16.81
2022-10-06T12:46:07.723Z,16.76
2022-10-06T12:48:42.783Z,16.69
2022-10-06T12:51:25.304Z,16.65
2022-10-06T12:54:04.146Z,16.57
2022-10-06T12:56:35.192Z,16.53
2022-10-06T12:59:21.404Z,16.51
2022-10-06T13:01:54.799Z,16.49
2022-10-06T13:04:40.579Z,16.45
2022-10-06T13:07:19.741Z,16.44
2022-10-06T13:09:51.137Z,16.45
2022-10-06T13:12:29.695Z,16.47
2022-10-06T13:15:23.474Z,16.52
2022-10-06T13:17:57.472Z,16.57
2022-10-06T13:20:37.954Z,16.69
2022-10-06T13:23:27.171Z,16.87
2022-10-06T13:25:58.877Z,17.05
2022-10-06T13:28:46.869Z,17.14
2022-10-06T13:31:21.549Z,17.24
2022-10-06T13:33:56.444Z,17.29
2022-10-06T13:36:26.172Z,17.41
2022-10-06T13:38:55.556Z,17.60
2022-10-06T13:41:29.469Z,17.87
2022-10-06T13:44:02.438Z,18.15
2022-10-06T13:46:33.783Z,18.45
2022-10-06T13:49:15.095Z,18.79
2022-10-06T13:51:49.386Z,19.14
2022-10-06T13:54:26.421Z,19.50
2022-10-06T13:56:55.905Z,19.86
2022-10-06T13:59:32.372Z,20.19
2022-10-06T14:02:21.554Z,20.48
2022-10-06T14:05:24.480Z,20.75
2022-10-06T14:07:58.013Z,20.95
2022-10-06T14:10:32.625Z,21.14
2022-10-06T14:13:03.081Z,21.29
2022-10-06T14:15:40.222Z,21.40
2022-10-06T14:18:18.349Z,21.59
2022-10-06T14:20:49.493Z,21.75
2022-10-06T14:23:41.516Z,21.85
2022-10-06T14:26:13.011Z,21.90
2022-10-06T14:28:47.129Z,21.96
2022-10-06T14:31:17.042Z,22.02
2022-10-06T14:33:47.065Z,22.08
2022-10-06T14:36:20.085Z,22.07
2022-10-06T14:38:52.544Z,22.01
2022-10-06T14:41:27.661Z,22.06
2022-10-06T14:43:58.871Z,22.15
2022-10-06T14:46:28.108Z,22.24
2022-10-06T14:48:57.682Z,22.30
2022-10-06T14:51:29.269Z,22.46
2022-10-06T14:54:01.973Z,22.58
2022-10-06T14:56:33.594Z,22.54
2022-10-06T14:59:05.893Z,22.47
2022-10-06T15:01:36.812Z,22.23
2022-10-06T15:04:08.837Z,21.92
2022-10-06T15:06:55.442Z,21.60
2022-10-06T15:09:26.465Z,21.19
2022-10-06T15:11:56.214Z,20.84
2022-10-06T15:14:25.630Z,20.51
2022-10-06T15:16:54.788Z,20.15
2022-10-06T15:19:23.819Z,19.86
2022-10-06T15:21:53.015Z,19.61
2022-10-06T15:24:22.224Z,19.42
2022-10-06T15:27:10.447Z,19.27
2022-10-06T15:29:39.749Z,19.16
2022-10-06T15:32:09.513Z,19.10
2022-10-06T15:34:38.699Z,19.02
2022-10-06T15:37:08.521Z,18.93
2022-10-06T15:39:38.484Z,18.79
2022-10-06T15:42:09.638Z,18.58
2022-10-06T15:44:39.236Z,18.37
2022-10-06T15:47:08.777Z,18.15
2022-10-06T15:49:41.628Z,17.94
2022-10-06T15:52:13.650Z,17.74
2022-10-06T15:54:43.819Z,17.55
2022-10-06T15:57:20.675Z,17.36
2022-10-06T15:59:50.400Z,17.17
2022-10-06T16:02:20.661Z,17.00
2022-10-06T16:05:28.100Z,16.83
2022-10-06T16:07:57.251Z,16.65
2022-10-06T16:10:26.248Z,16.46
2022-10-06T16:12:56.616Z,16.29
2022-10-06T16:15:25.773Z,16.14
2022-10-06T16:17:54.858Z,16.01
2022-10-06T16:20:23.845Z,15.89
2022-10-06T16:22:53.060Z,15.74
2022-10-06T16:25:22.028Z,15.63
2022-10-06T16:27:51.496Z,15.51
2022-10-06T16:30:22.075Z,15.40
2022-10-06T16:32:51.163Z,15.30
2022-10-06T16:35:20.225Z,15.19
2022-10-06T16:37:50.064Z,15.09
2022-10-06T16:40:19.275Z,14.97
2022-10-06T16:42:48.428Z,14.86
2022-10-06T16:45:17.593Z,14.76
2022-10-06T16:47:48.794Z,14.68
2022-10-06T16:50:18.338Z,14.59
2022-10-06T16:52:47.688Z,14.51
2022-10-06T16:55:17.250Z,14.43
2022-10-06T16:57:46.211Z,14.38
2022-10-06T17:00:16.597Z,14.32
2022-10-06T17:02:49.423Z,14.20
2022-10-06T17:05:18.664Z,14.13
2022-10-06T17:07:47.879Z,14.06
2022-10-06T17:10:20.488Z,13.99
2022-10-06T17:12:50.496Z,13.91
2022-10-06T17:15:19.606Z,13.84
2022-10-06T17:17:50.025Z,13.78
2022-10-06T17:20:19.367Z,13.70
2022-10-06T17:22:48.636Z,13.65
2022-10-06T17:25:18.387Z,13.56
2022-10-06T17:27:47.716Z,13.49
2022-10-06T17:30:16.877Z,13.43
2022-10-06T17:32:47.083Z,13.35
2022-10-06T17:35:19.854Z,13.29
2022-10-06T17:37:50.269Z,13.23
2022-10-06T17:40:19.884Z,13.18
2022-10-06T17:42:50.258Z,13.12
2022-10-06T17:45:21.443Z,13.07
2022-10-06T17:47:51.839Z,13.01
2022-10-06T17:50:22.181Z,12.95
2022-10-06T17:52:52.728Z,12.90
2022-10-06T17:55:22.617Z,12.84
2022-10-06T17:57:51.972Z,12.77
2022-10-06T18:00:21.969Z,12.73
2022-10-06T18:03:00.349Z,12.66
2022-10-06T18:05:33.144Z,12.59
2022-10-06T18:08:05.426Z,12.53
2022-10-06T18:10:52.734Z,12.48
2022-10-06T18:13:23.554Z,12.41
2022-10-06T18:15:52.703Z,12.38
2022-10-06T18:18:25.341Z,12.32
2022-10-06T18:21:03.863Z,12.26
2022-10-06T18:23:36.860Z,12.20
2022-10-06T18:26:06.589Z,12.15
2022-10-06T18:28:35.628Z,12.09
2022-10-06T18:31:04.675Z,12.04
2022-10-06T18:36:25.301Z,11.93
2022-10-06T18:38:55.837Z,11.88
2022-10-06T18:41:27.376Z,11.83
2022-10-06T18:43:57.082Z,11.78
2022-10-06T18:46:43.565Z,11.72
2022-10-06T18:49:15.838Z,11.65
2022-10-06T18:51:51.075Z,11.59
2022-10-06T18:54:24.010Z,11.51
2022-10-06T18:56:53.119Z,11.47
2022-10-06T18:59:26.204Z,11.41
2022-10-06T19:01:57.890Z,11.35
2022-10-06T19:04:27.511Z,11.30
2022-10-06T19:06:58.184Z,11.26
2022-10-06T19:09:27.643Z,11.20
2022-10-06T19:11:58.871Z,11.15
2022-10-06T19:14:31.806Z,11.11
2022-10-06T19:17:03.702Z,11.06
2022-10-06T19:19:34.496Z,11.00
2022-10-06T19:22:06.539Z,10.95
2022-10-06T19:24:39.851Z,10.90
2022-10-06T19:27:12.516Z,10.85
2022-10-06T19:29:46.226Z,10.82
2022-10-06T19:32:17.741Z,10.75
2022-10-06T19:34:48.596Z,10.71
2022-10-06T19:37:20.105Z,10.67
2022-10-06T19:39:50.722Z,10.63
2022-10-06T19:42:39.791Z,10.60
2022-10-06T19:45:12.405Z,10.55
2022-10-06T19:47:44.766Z,10.51
2022-10-06T19:50:15.738Z,10.46
2022-10-06T19:52:47.063Z,10.43
2022-10-06T19:55:17.049Z,10.39
2022-10-06T19:57:47.179Z,10.35
2022-10-06T20:00:21.143Z,10.32
2022-10-06T20:02:51.126Z,10.30
2022-10-06T20:05:20.625Z,10.26
2022-10-06T20:07:50.998Z,10.25
2022-10-06T20:10:21.557Z,10.25
2022-10-06T20:12:50.526Z,10.24
2022-10-06T20:15:19.978Z,10.24
2022-10-06T20:17:49.085Z,10.27
2022-10-06T20:20:18.925Z,10.27
2022-10-06T20:22:49.796Z,10.28
2022-10-06T20:25:20.569Z,10.30
2022-10-06T20:27:50.284Z,10.31
2022-10-06T20:30:19.538Z,10.32
2022-10-06T20:32:48.724Z,10.34
2022-10-06T20:35:17.873Z,10.34
2022-10-06T20:37:47.092Z,10.35
2022-10-06T20:40:34.092Z,10.36
2022-10-06T20:43:04.771Z,10.36
2022-10-06T20:45:34.022Z,10.37
2022-10-06T20:48:03.157Z,10.39
2022-10-06T20:50:32.610Z,10.39
2022-10-06T20:53:01.577Z,10.42
2022-10-06T20:55:30.535Z,10.42
2022-10-06T20:57:59.721Z,10.44
2022-10-06T21:00:30.105Z,10.45
2022-10-06T21:02:59.498Z,10.45
2022-10-06T21:05:31.941Z,10.46
2022-10-06T21:08:01.947Z,10.46
2022-10-06T21:10:30.967Z,10.45
2022-10-06T21:13:00.887Z,10.43
2022-10-06T21:15:31.518Z,10.43
2022-10-06T21:18:00.788Z,10.42
2022-10-06T21:20:29.885Z,10.43
2022-10-06T21:22:59.086Z,10.43
2022-10-06T21:25:28.078Z,10.42
2022-10-06T21:27:57.330Z,10.40
2022-10-06T21:30:26.748Z,10.39
2022-10-06T21:32:57.738Z,10.41
2022-10-06T21:35:27.080Z,10.39
2022-10-06T21:37:56.494Z,10.38
2022-10-06T21:40:25.556Z,10.37
2022-10-06T21:42:54.579Z,10.36
2022-10-06T21:45:24.944Z,10.35
2022-10-06T21:47:56.414Z,10.33
2022-10-06T21:50:25.641Z,10.33
2022-10-06T21:52:54.653Z,10.33
2022-10-06T21:55:23.880Z,10.31
2022-10-06T21:57:52.908Z,10.31
2022-10-06T22:00:22.017Z,10.32
2022-10-06T22:02:51.450Z,10.30
2022-10-06T22:05:22.156Z,10.33
2022-10-06T22:07:51.177Z,10.32
2022-10-06T22:10:20.369Z,10.33
2022-10-06T22:12:49.421Z,10.34
2022-10-06T22:15:18.554Z,10.34
2022-10-06T22:17:48.634Z,10.35
2022-10-06T22:20:17.740Z,10.35
2022-10-06T22:22:48.162Z,10.36
2022-10-06T22:25:17.658Z,10.36
2022-10-06T22:27:46.876Z,10.37
2022-10-06T22:30:16.013Z,10.36
2022-10-06T22:32:45.256Z,10.35
2022-10-06T22:35:14.419Z,10.36
2022-10-06T22:37:43.564Z,10.35
2022-10-06T22:40:14.542Z,10.35
2022-10-06T22:42:43.549Z,10.35
2022-10-06T22:45:12.713Z,10.34
2022-10-06T22:47:42.286Z,10.34
2022-10-06T22:50:11.260Z,10.34
2022-10-06T22:52:40.308Z,10.34
2022-10-06T22:55:10.162Z,10.34
2022-10-06T22:57:42.219Z,10.32
2022-10-06T23:00:12.797Z,10.31
2022-10-06T23:02:41.984Z,10.31
2022-10-06T23:05:11.014Z,10.30
2022-10-06T23:07:40.245Z,10.29
2022-10-06T23:10:10.349Z,10.29
2022-10-06T23:12:40.976Z,10.27
2022-10-06T23:15:13.819Z,10.26
2022-10-06T23:17:43.591Z,10.23
2022-10-06T23:20:13.389Z,10.24
2022-10-06T23:22:42.444Z,10.23
2022-10-06T23:25:12.204Z,10.21
2022-10-06T23:27:43.148Z,10.19
2022-10-06T23:30:13.137Z,10.18
2022-10-06T23:32:42.439Z,10.17
2022-10-06T23:35:12.717Z,10.16
2022-10-06T23:37:42.060Z,10.16
2022-10-06T23:40:12.119Z,10.14
2022-10-06T23:42:42.673Z,10.13
2022-10-06T23:45:12.252Z,10.12
2022-10-06T23:47:41.698Z,10.10
2022-10-06T23:50:11.379Z,10.09
2022-10-06T23:52:41.522Z,10.06
2022-10-06T23:55:10.829Z,10.04
2022-10-06T23:57:41.714Z,10.02
